Address 0x8832924854e3cedb0a6abf372e6ccff9f7654332 5

 
 
Txn Hash Method
Block
From
To
Value [Txn Fee]
0x0180c802a8138a0a0c4c7525db015db412ff5ce7c84d32853a7984bcfec3fb35Transfer280621142022-05-08 6:31:5812 days 1 hr ago0x8832924854e3cedb0a6abf372e6ccff9f7654332OUT0xd61f9e7f23c31c40ec5aed045b540f39e36597c4100,000 MATIC0.000705894 33.614
0xca57e92844b8d78d903f91f56b5bd5fc12ceabf21bccaad7f4fa3304fb98effdWithdraw ETH280608652022-05-08 5:46:5312 days 2 hrs ago0x8832924854e3cedb0a6abf372e6ccff9f7654332OUT Aave: WETH Gateway V20 MATIC0.020483497441 35.280000003
0x33e78f4a55f06718e99f72cbad5fc3ba9412ffef1cf3c0c1e43d4fb336f057c6Withdraw ETH280608392022-05-08 5:45:5712 days 2 hrs ago0x8832924854e3cedb0a6abf372e6ccff9f7654332OUT Aave: WETH Gateway V20 MATIC0.0580403 100
0xb7340a5044dba4b9328776aba3560eb696ba7277657cdacc10709995871beafdApprove280502252022-05-07 23:14:1912 days 9 hrs ago0x8832924854e3cedb0a6abf372e6ccff9f7654332OUT Aave: amWMATIC Token0 MATIC0.00358650258 69.4466459
0x9714437c78d980650721af37524811f92fa8dd767cd3d8b9378c20a38bc83ffaRepay280501932022-05-07 23:13:1512 days 9 hrs ago0x8832924854e3cedb0a6abf372e6ccff9f7654332OUT Aave: Lending Pool V20 MATIC0.017856843382 68.944808854
0x1850a8648e40a2c9ba819910f78b8f0334d2a384971df6f5386d8fc519608c8aWithdraw280474892022-05-07 21:38:0012 days 10 hrs ago0x8832924854e3cedb0a6abf372e6ccff9f7654332OUT Mapper: USDT Stablecoin0 MATIC0.005394457188 154.924100752
0xe2934c1bb816860496b4a7b880b1fa2181b65d420d4f2b5493cd2ff14c9a9844Repay280473902022-05-07 21:34:3412 days 10 hrs ago0x8832924854e3cedb0a6abf372e6ccff9f7654332OUT Aave: Lending Pool V20 MATIC0.045678166458 176.35404441
0x578e11796925c4080b0dc3eb95ed045d247fd574b16becff9607595ac5ab0217Repay280114292022-05-07 0:29:4413 days 7 hrs ago0x8832924854e3cedb0a6abf372e6ccff9f7654332OUT Aave: Lending Pool V20 MATIC0.009145850473 35.310255327
0x20533872e58d2d36d80910d5c35c6bb1d51943efe7e4a729c256af0bea381c8cTransfer280113722022-05-07 0:27:4613 days 7 hrs ago0x8832924854e3cedb0a6abf372e6ccff9f7654332OUT Mapper: USDT Stablecoin0 MATIC0.001976408809 34.481468459
0x6890cce8795262a97cf65b1dbef5246d77afc56490cfc89c95149bd5dab77b01Transfer280108922022-05-07 0:10:3613 days 8 hrs ago0x8832924854e3cedb0a6abf372e6ccff9f7654332OUT Mapper: USDT Stablecoin0 MATIC0.001732449221 30.225221069
0xc07aa9339da2bbe71efc71ce5869f3a7812ecf2b3b7abe62ace2570eafc1d3a6Repay280106142022-05-07 0:00:5213 days 8 hrs ago0x8832924854e3cedb0a6abf372e6ccff9f7654332OUT Aave: Lending Pool V20 MATIC0.008051339766 31.084573679
0xa2c77191a60433c69668702e30de30ad7d298cae7bc022e7317799fe79bff189Repay280104472022-05-06 23:55:1013 days 8 hrs ago0x8832924854e3cedb0a6abf372e6ccff9f7654332OUT Aave: Lending Pool V20 MATIC0.008050966748 31.084573664
0x67b96fe9ea86f5c840a931d6b2aa36cbf4de8f6391b698b724e914a1a10f89ebTransfer280101452022-05-06 23:44:1513 days 8 hrs ago0x8832924854e3cedb0a6abf372e6ccff9f7654332OUT Mapper: USDT Stablecoin0 MATIC0.002254295159 39.329620001
0x582660acde50a3642c58643fa9eea8485ac6791c4c4c2fe6bd59032c3b2005ddTransfer280085702022-05-06 22:50:0513 days 9 hrs ago0x8832924854e3cedb0a6abf372e6ccff9f7654332OUT Mapper: USDT Stablecoin0 MATIC0.002514791582 43.883565108
0x3f596a292c2f96d3e475935fd849fa465c0f4f142dd3973e2fe237b26d347545Deposit277979542022-05-01 14:04:2418 days 18 hrs ago0x8832924854e3cedb0a6abf372e6ccff9f7654332OUT Aave: Lending Pool V20 MATIC0.007810344696 32.084692852
0xf6e999e140f34052b57e944887f9e5d1fc6eba9d4f3953a773b9e4c4538eea83Deposit277979382022-05-01 14:03:4818 days 18 hrs ago0x8832924854e3cedb0a6abf372e6ccff9f7654332OUT Aave: Lending Pool V20 MATIC0.007390181789 30.358674561
0xd70b5b823ccbba3692d1482741b2cfae539165d4fb7c2b9f1aa348e8b8bcc5adApprove277979242022-05-01 14:03:2018 days 18 hrs ago0x8832924854e3cedb0a6abf372e6ccff9f7654332OUT Aavegotchi: GHST Token0 MATIC0.001621809922 31.14552778
0xc2e80812ec07d45ca3816dd0a87c1e8a5550a1e28b48a84c3cd8e2050604e4c1Approve277968782022-05-01 13:25:1618 days 18 hrs ago0x8832924854e3cedb0a6abf372e6ccff9f7654332OUT 0x9a71012b13ca4d3d0cdc72a177df3ef03b0e76a30 MATIC0.001642794373 31.548516934
0xa835be08494b4b269d876351613375c2126b103ddc20419057017e36fa346965Deposit277963472022-05-01 13:04:5018 days 19 hrs ago0x8832924854e3cedb0a6abf372e6ccff9f7654332OUT Aave: Lending Pool V20 MATIC0.007004533566 30.742403057
0x6c21a824e94b5557d5a826f183cfef7fa01499e5a134b1458c2a3364dad53808Approve277963312022-05-01 13:04:1818 days 19 hrs ago0x8832924854e3cedb0a6abf372e6ccff9f7654332OUT Aave: AAVE Token0 MATIC0.001600818351 30.742401899
0xd4442939e1eff6a9154662302d6a61f6934e5fe50cc9e765283b3ae69178243dRepay277807572022-05-01 3:53:1519 days 4 hrs ago0x8832924854e3cedb0a6abf372e6ccff9f7654332OUT Aave: Lending Pool V20 MATIC0.009382256799 36.224650001
0x6ef2331b07ae6a48bcfb864271764bf9bea034e29987bcef3c686e61032e9bebApprove277807432022-05-01 3:52:4719 days 4 hrs ago0x8832924854e3cedb0a6abf372e6ccff9f7654332OUT USD Coin0 MATIC0.00218266587 37.345000001
0x64241f271f1627ac03dc6259115c9c7bfb6e665defeaa48b1a2b2045073cdd41Exchange_underly...277807062022-05-01 3:51:2919 days 4 hrs ago0x8832924854e3cedb0a6abf372e6ccff9f7654332OUT 0x4df7ef55e99a56851187822d96b4e17d98a47ded0 MATIC0.021168832044 32.000000067
0x94daf3ef835b0ba799931122e5210a85eccb3abbc2745e715e4d6b9a3c0da296Approve277806712022-05-01 3:50:1519 days 4 hrs ago0x8832924854e3cedb0a6abf372e6ccff9f7654332OUT Mapper: USDT Stablecoin0 MATIC0.001666304 32.000000006
0x090f06d204a3a2ab3cc3689c7a4752dd950a5d58ac56d14cf9cde6ea3d73b7caDeposit260767002022-03-18 13:46:3762 days 18 hrs ago0x8832924854e3cedb0a6abf372e6ccff9f7654332OUT Aave: Lending Pool V20 MATIC0.0207319 100
[ Download CSV Export 
Latest 4 internal transactions
Parent Txn Hash Block From To Value
0xca57e92844b8d78d903f91f56b5bd5fc12ceabf21bccaad7f4fa3304fb98effd280608652022-05-08 5:46:5312 days 2 hrs ago Aave: WETH Gateway V20x8832924854e3cedb0a6abf372e6ccff9f765433210,146,155.69366003386943384 MATIC
0x33e78f4a55f06718e99f72cbad5fc3ba9412ffef1cf3c0c1e43d4fb336f057c6280608392022-05-08 5:45:5712 days 2 hrs ago Aave: WETH Gateway V20x8832924854e3cedb0a6abf372e6ccff9f765433220,000,000 MATIC
0x8ed46b96bb7bb3215f982e86def00c8d5ac4cc3e9468b989f7f64481b86e034c244924362022-02-03 7:22:33106 days 1 hr ago Polygon: WMATIC Token0x8832924854e3cedb0a6abf372e6ccff9f765433234,658.753997413008747168 MATIC
0x30a105f9693ab391285dd7b58a1f5f798f56b6869a7edf124cf0da67e9f35b78240053302022-01-22 0:20:27118 days 8 hrs ago Polygon: WMATIC Token0x8832924854e3cedb0a6abf372e6ccff9f765433228,356.469468131741492913 MATIC
[ Download CSV Export 
Loading

Contract Name:
0 MATIC

Compiler Version
0

Optimization Enabled:
0 MATIC

Other Settings:
-NA-
Block Transaction Gas Used Reward
Age Block Fee Address BC Fee Address Voting Power Jailed Incoming
Block Uncle Number Difficulty Gas Used Reward
Loading
Loading
Make sure to use the "Vote Down" button for any spammy posts, and the "Vote Up" for interesting conversations.